createdAt,value
2016-12-01T00:00:13.902Z,60.23
2016-12-01T00:01:13.804Z,60.09
2016-12-01T00:02:13.250Z,59.27
2016-12-01T00:03:12.993Z,59.09
2016-12-01T00:04:12.862Z,58.99
2016-12-01T00:05:13.937Z,58.96
2016-12-01T00:06:12.413Z,58.91
2016-12-01T00:07:13.791Z,58.89
2016-12-01T00:08:13.441Z,58.87
2016-12-01T00:09:15.825Z,58.87
2016-12-01T00:10:14.119Z,58.88
2016-12-01T00:11:12.143Z,59.10
2016-12-01T00:12:12.760Z,59.80
2016-12-01T00:13:11.690Z,59.98
2016-12-01T00:14:19.050Z,59.12
2016-12-01T00:15:12.100Z,58.93
2016-12-01T00:16:12.843Z,58.90
2016-12-01T00:17:13.868Z,58.99
2016-12-01T00:18:13.522Z,59.76
2016-12-01T00:19:13.085Z,59.93
2016-12-01T00:20:12.932Z,60.02
2016-12-01T00:21:12.893Z,60.09
2016-12-01T00:22:13.580Z,60.11
2016-12-01T00:23:13.944Z,60.10
2016-12-01T00:24:12.182Z,60.13
2016-12-01T00:25:12.142Z,60.13
2016-12-01T00:26:13.411Z,60.11
2016-12-01T00:27:12.322Z,60.14
2016-12-01T00:28:12.727Z,60.15
2016-12-01T00:29:12.578Z,60.14
2016-12-01T00:30:13.036Z,60.15
2016-12-01T00:31:12.133Z,60.14
2016-12-01T00:32:12.856Z,60.14
2016-12-01T00:33:13.853Z,60.00
2016-12-01T00:34:12.848Z,59.13
2016-12-01T00:35:13.214Z,59.03
2016-12-01T00:36:14.109Z,58.92
2016-12-01T00:37:12.542Z,58.90
2016-12-01T00:38:11.696Z,58.89
2016-12-01T00:39:13.102Z,58.86
2016-12-01T00:40:12.787Z,59.15
2016-12-01T00:41:10.920Z,59.78
2016-12-01T00:42:12.913Z,59.97
2016-12-01T00:43:14.284Z,60.05
2016-12-01T00:44:12.866Z,60.07
2016-12-01T00:45:12.840Z,60.12
2016-12-01T00:46:13.551Z,60.13
2016-12-01T00:47:12.550Z,60.12
2016-12-01T00:48:12.640Z,60.15
2016-12-01T00:49:13.101Z,60.15
2016-12-01T00:50:13.852Z,60.16
2016-12-01T00:51:11.656Z,60.18
2016-12-01T00:52:12.613Z,59.17
2016-12-01T00:53:14.023Z,59.06
2016-12-01T00:54:12.123Z,58.98
2016-12-01T00:55:12.626Z,58.92
2016-12-01T00:56:13.565Z,58.89
2016-12-01T00:57:12.585Z,58.91
2016-12-01T00:58:13.144Z,58.87
2016-12-01T00:59:11.148Z,58.87
2016-12-01T01:00:13.106Z,58.89
2016-12-01T01:01:12.799Z,58.86
2016-12-01T01:02:13.171Z,58.96
2016-12-01T01:03:13.309Z,59.79
2016-12-01T01:04:12.831Z,59.97
2016-12-01T01:05:13.321Z,60.04
2016-12-01T01:06:10.660Z,60.12
2016-12-01T01:07:12.791Z,60.17
2016-12-01T01:08:13.702Z,60.17
2016-12-01T01:09:13.612Z,60.19
2016-12-01T01:10:13.379Z,60.21
2016-12-01T01:11:12.660Z,60.21
2016-12-01T01:12:14.155Z,60.25
2016-12-01T01:13:13.023Z,60.24
2016-12-01T01:14:12.956Z,60.25
2016-12-01T01:15:12.340Z,60.27
2016-12-01T01:16:13.855Z,60.26
2016-12-01T01:17:13.447Z,60.27
2016-12-01T01:18:10.639Z,60.29
2016-12-01T01:19:12.677Z,60.26
2016-12-01T01:20:14.275Z,60.28
2016-12-01T01:21:15.104Z,60.29
2016-12-01T01:22:12.885Z,60.26
2016-12-01T01:23:12.844Z,60.29
2016-12-01T01:24:12.964Z,60.26
2016-12-01T01:25:12.643Z,60.29
2016-12-01T01:26:15.342Z,60.32
2016-12-01T01:27:13.754Z,60.32
2016-12-01T01:28:13.175Z,60.30
2016-12-01T01:29:14.925Z,60.31
2016-12-01T01:30:13.855Z,60.30
2016-12-01T01:31:12.905Z,60.32
2016-12-01T01:32:14.057Z,60.31
2016-12-01T01:33:12.041Z,60.31
2016-12-01T01:34:12.875Z,60.31
2016-12-01T01:35:14.007Z,60.31
2016-12-01T01:36:14.256Z,60.36
2016-12-01T01:37:13.327Z,60.31
2016-12-01T01:38:12.175Z,60.33
2016-12-01T01:39:10.919Z,59.38
2016-12-01T01:40:13.697Z,59.18
2016-12-01T01:41:12.689Z,59.09
2016-12-01T01:42:12.523Z,59.06
2016-12-01T01:43:14.648Z,59.01
2016-12-01T01:44:12.642Z,59.00
2016-12-01T01:45:12.726Z,59.01
2016-12-01T01:46:11.854Z,58.99
2016-12-01T01:47:13.296Z,58.98
2016-12-01T01:48:15.047Z,59.04
2016-12-01T01:49:12.977Z,59.91
2016-12-01T01:50:13.324Z,60.10
2016-12-01T01:51:15.585Z,60.21
2016-12-01T01:52:12.566Z,60.24
2016-12-01T01:53:13.678Z,60.29
2016-12-01T01:54:13.614Z,60.28
2016-12-01T01:55:14.111Z,60.27
2016-12-01T01:56:12.167Z,60.32
2016-12-01T01:57:14.294Z,60.34
2016-12-01T01:58:13.997Z,60.28
2016-12-01T01:59:14.613Z,59.55
2016-12-01T02:00:15.534Z,60.16
2016-12-01T02:01:12.105Z,60.28
2016-12-01T02:02:12.228Z,60.30
2016-12-01T02:03:14.030Z,60.34
2016-12-01T02:04:12.938Z,60.38
2016-12-01T02:05:11.940Z,60.40
2016-12-01T02:06:13.692Z,60.40
2016-12-01T02:07:14.038Z,60.40
2016-12-01T02:08:13.731Z,60.42
2016-12-01T02:09:14.434Z,60.41
2016-12-01T02:10:14.085Z,60.39
2016-12-01T02:11:12.668Z,60.39
2016-12-01T02:12:14.771Z,60.40
2016-12-01T02:13:13.578Z,60.39
2016-12-01T02:14:16.500Z,60.41
2016-12-01T02:15:12.789Z,60.41
2016-12-01T02:16:14.037Z,60.40
2016-12-01T02:17:12.241Z,60.37
2016-12-01T02:18:14.984Z,60.38
2016-12-01T02:19:12.770Z,60.35
2016-12-01T02:20:15.186Z,59.40
2016-12-01T02:21:14.286Z,59.27
2016-12-01T02:22:13.350Z,59.47
2016-12-01T02:23:12.896Z,60.07
2016-12-01T02:24:11.752Z,60.15
2016-12-01T02:25:12.089Z,59.34
2016-12-01T02:26:15.309Z,59.28
2016-12-01T02:27:12.320Z,60.04
2016-12-01T02:28:15.419Z,60.20
2016-12-01T02:29:14.641Z,60.28
2016-12-01T02:30:13.329Z,60.29
2016-12-01T02:31:16.533Z,60.32
2016-12-01T02:32:13.342Z,60.33
2016-12-01T02:33:13.789Z,60.33
2016-12-01T02:34:13.153Z,60.33
2016-12-01T02:35:14.361Z,60.35
2016-12-01T02:36:15.700Z,60.35
2016-12-01T02:37:12.025Z,60.37
2016-12-01T02:38:14.908Z,60.34
2016-12-01T02:39:14.490Z,60.36
2016-12-01T02:40:14.018Z,60.23
2016-12-01T02:41:14.040Z,59.67
2016-12-01T02:42:13.327Z,60.16
2016-12-01T02:43:12.365Z,60.25
2016-12-01T02:44:11.275Z,60.33
2016-12-01T02:45:12.861Z,60.34
2016-12-01T02:46:16.623Z,60.36
2016-12-01T02:47:14.274Z,60.34
2016-12-01T02:48:13.199Z,60.37
2016-12-01T02:49:12.251Z,60.37
2016-12-01T02:50:13.045Z,60.39
2016-12-01T02:51:13.459Z,60.39
2016-12-01T02:52:16.174Z,60.39
2016-12-01T02:53:15.006Z,60.41
2016-12-01T02:54:13.166Z,60.39
2016-12-01T02:55:13.540Z,60.40
2016-12-01T02:56:11.222Z,60.37
2016-12-01T02:57:13.767Z,59.55
2016-12-01T02:58:18.779Z,60.22
2016-12-01T02:59:13.242Z,60.31
2016-12-01T03:00:13.213Z,60.31
2016-12-01T03:01:12.202Z,60.36
2016-12-01T03:02:12.773Z,60.38
2016-12-01T03:03:14.819Z,60.38
2016-12-01T03:04:11.425Z,60.41
2016-12-01T03:05:14.442Z,60.40
2016-12-01T03:06:11.151Z,60.51
2016-12-01T03:07:12.277Z,60.41
2016-12-01T03:08:12.662Z,60.38
2016-12-01T03:09:13.261Z,60.38
2016-12-01T03:10:12.785Z,60.40
2016-12-01T03:11:13.908Z,60.40
2016-12-01T03:12:13.469Z,60.41
2016-12-01T03:13:12.515Z,60.40
2016-12-01T03:14:12.558Z,60.40
2016-12-01T03:15:12.687Z,60.39
2016-12-01T03:16:12.581Z,60.42
2016-12-01T03:17:12.696Z,60.41
2016-12-01T03:18:10.837Z,60.43
2016-12-01T03:19:13.936Z,59.47
2016-12-01T03:20:13.337Z,59.41
2016-12-01T03:21:12.515Z,59.53
2016-12-01T03:22:13.662Z,60.14
2016-12-01T03:23:12.668Z,60.26
2016-12-01T03:24:13.216Z,60.35
2016-12-01T03:25:13.667Z,60.37
2016-12-01T03:26:13.062Z,60.41
2016-12-01T03:27:12.793Z,60.40
2016-12-01T03:28:13.170Z,60.40
2016-12-01T03:29:12.213Z,60.41
2016-12-01T03:30:13.172Z,60.41
2016-12-01T03:31:12.258Z,60.41
2016-12-01T03:32:10.677Z,60.45
2016-12-01T03:33:12.350Z,60.46
2016-12-01T03:34:13.005Z,60.44
2016-12-01T03:35:12.574Z,60.47
2016-12-01T03:36:13.805Z,60.46
2016-12-01T03:37:09.916Z,60.46
2016-12-01T03:38:12.566Z,60.46
2016-12-01T03:39:13.096Z,60.35
2016-12-01T03:40:12.782Z,59.50
2016-12-01T03:41:13.446Z,59.50
2016-12-01T03:42:11.460Z,60.18
2016-12-01T03:43:12.825Z,60.31
2016-12-01T03:44:13.348Z,60.40
2016-12-01T03:45:13.517Z,60.40
2016-12-01T03:46:12.768Z,60.43
2016-12-01T03:47:13.342Z,60.46
2016-12-01T03:48:12.586Z,60.47
2016-12-01T03:49:12.477Z,60.49
2016-12-01T03:50:12.749Z,60.48
2016-12-01T03:51:12.848Z,60.48
2016-12-01T03:52:11.772Z,60.51
2016-12-01T03:53:15.178Z,60.49
2016-12-01T03:54:14.513Z,60.49
2016-12-01T03:55:13.073Z,60.48
2016-12-01T03:56:12.678Z,60.51
2016-12-01T03:57:13.088Z,60.47
2016-12-01T03:58:14.072Z,60.48
2016-12-01T03:59:13.096Z,60.49
2016-12-01T04:00:12.754Z,60.49
2016-12-01T04:01:11.436Z,60.49
2016-12-01T04:02:12.584Z,59.59
2016-12-01T04:03:13.276Z,59.36
2016-12-01T04:04:12.799Z,59.26
2016-12-01T04:05:12.898Z,60.15
2016-12-01T04:06:13.707Z,60.34
2016-12-01T04:07:13.114Z,60.41
2016-12-01T04:08:13.097Z,60.46
2016-12-01T04:09:13.267Z,60.45
2016-12-01T04:10:12.930Z,60.48
2016-12-01T04:11:13.366Z,60.48
2016-12-01T04:12:13.567Z,60.49
2016-12-01T04:13:14.253Z,60.51
2016-12-01T04:14:12.715Z,60.51
2016-12-01T04:15:13.825Z,60.49
2016-12-01T04:16:12.883Z,60.50
2016-12-01T04:17:13.673Z,60.53
2016-12-01T04:18:13.972Z,60.53
2016-12-01T04:19:13.111Z,60.50
2016-12-01T04:20:12.062Z,60.53
2016-12-01T04:21:14.530Z,60.51
2016-12-01T04:22:13.191Z,60.54
2016-12-01T04:23:12.736Z,60.50
2016-12-01T04:24:12.796Z,60.52
2016-12-01T04:25:12.734Z,60.50
2016-12-01T04:26:12.679Z,60.52
2016-12-01T04:27:12.790Z,60.54
2016-12-01T04:28:13.232Z,60.55
2016-12-01T04:29:12.243Z,60.52
2016-12-01T04:30:12.121Z,60.53
2016-12-01T04:31:12.685Z,60.53
2016-12-01T04:32:13.305Z,60.53
2016-12-01T04:33:13.662Z,60.52
2016-12-01T04:34:13.341Z,60.52
2016-12-01T04:35:13.825Z,60.53
2016-12-01T04:36:12.721Z,60.53
2016-12-01T04:37:10.833Z,60.54
2016-12-01T04:38:12.010Z,59.59
2016-12-01T04:39:12.722Z,59.39
2016-12-01T04:40:10.232Z,60.24
2016-12-01T04:41:12.463Z,60.37
2016-12-01T04:42:13.167Z,60.47
2016-12-01T04:43:11.354Z,60.49
2016-12-01T04:44:13.499Z,60.52
2016-12-01T04:45:12.561Z,60.49
2016-12-01T04:46:11.314Z,60.71
2016-12-01T04:47:14.019Z,59.59
2016-12-01T04:48:12.752Z,59.38
2016-12-01T04:49:13.803Z,60.27
2016-12-01T04:50:12.766Z,60.39
2016-12-01T04:51:12.768Z,60.47
2016-12-01T04:52:12.678Z,60.51
2016-12-01T04:53:13.213Z,60.50
2016-12-01T04:54:13.496Z,60.46
2016-12-01T04:55:10.714Z,59.56
2016-12-01T04:56:13.560Z,59.73
2016-12-01T04:57:13.250Z,60.24
2016-12-01T04:58:13.280Z,60.40
2016-12-01T04:59:12.357Z,60.45
2016-12-01T05:00:12.479Z,60.50
2016-12-01T05:01:13.231Z,60.50
2016-12-01T05:02:12.547Z,60.51
2016-12-01T05:03:14.372Z,60.52
2016-12-01T05:04:14.012Z,60.52
2016-12-01T05:05:13.341Z,60.54
2016-12-01T05:06:12.471Z,60.52
2016-12-01T05:07:13.123Z,60.54
2016-12-01T05:08:14.529Z,60.53
2016-12-01T05:09:13.082Z,60.58
2016-12-01T05:10:12.741Z,60.44
2016-12-01T05:11:13.383Z,60.47
2016-12-01T05:12:13.051Z,60.50
2016-12-01T05:13:10.204Z,60.80
2016-12-01T05:14:12.170Z,60.92
2016-12-01T05:15:12.217Z,61.07
2016-12-01T05:16:12.292Z,61.25
2016-12-01T05:17:12.877Z,61.13
2016-12-01T05:18:12.866Z,61.29
2016-12-01T05:19:19.428Z,61.44
2016-12-01T05:20:14.821Z,61.46
2016-12-01T05:21:13.825Z,61.46
2016-12-01T05:22:14.175Z,61.45
2016-12-01T05:23:13.013Z,61.40
2016-12-01T05:24:13.449Z,61.42
2016-12-01T05:25:15.098Z,61.43
2016-12-01T05:26:13.597Z,61.42
2016-12-01T05:27:16.937Z,61.41
2016-12-01T05:28:13.041Z,61.42
2016-12-01T05:29:11.707Z,61.31
2016-12-01T05:30:11.412Z,60.56
2016-12-01T05:31:14.084Z,61.17
2016-12-01T05:32:12.936Z,61.26
2016-12-01T05:33:12.114Z,61.31
2016-12-01T05:34:13.806Z,61.34
2016-12-01T05:35:13.363Z,61.32
2016-12-01T05:36:13.300Z,61.32
2016-12-01T05:37:13.053Z,61.32
2016-12-01T05:38:12.726Z,61.32
2016-12-01T05:39:13.402Z,61.32
2016-12-01T05:40:13.096Z,61.31
2016-12-01T05:41:12.789Z,61.29
2016-12-01T05:42:13.405Z,61.30
2016-12-01T05:43:12.616Z,61.30
2016-12-01T05:44:10.747Z,61.31
2016-12-01T05:45:11.733Z,61.30
2016-12-01T05:46:14.306Z,61.29
2016-12-01T05:47:12.289Z,61.29
2016-12-01T05:48:12.356Z,61.28
2016-12-01T05:49:14.104Z,61.28
2016-12-01T05:50:12.135Z,61.27
2016-12-01T05:51:12.230Z,61.27
2016-12-01T05:52:12.870Z,61.25
2016-12-01T05:53:10.878Z,61.28
2016-12-01T05:54:13.267Z,61.22
2016-12-01T05:55:13.135Z,61.21
2016-12-01T05:56:12.884Z,61.20
2016-12-01T05:57:14.047Z,61.27
2016-12-01T05:58:12.148Z,61.63
2016-12-01T05:59:14.839Z,62.11
2016-12-01T06:00:19.475Z,62.28
2016-12-01T06:01:12.409Z,62.38
2016-12-01T06:02:12.962Z,62.60
2016-12-01T06:03:12.076Z,62.80
2016-12-01T06:04:12.120Z,62.84
2016-12-01T06:05:12.148Z,63.01
2016-12-01T06:06:19.699Z,63.33
2016-12-01T06:07:13.404Z,63.23
2016-12-01T06:08:13.123Z,63.23
2016-12-01T06:09:11.455Z,63.11
2016-12-01T06:10:12.258Z,62.99
2016-12-01T06:11:18.473Z,64.56
2016-12-01T06:12:13.103Z,65.55
2016-12-01T06:13:18.709Z,65.12
2016-12-01T06:14:14.306Z,64.66
2016-12-01T06:15:12.434Z,66.15
2016-12-01T06:16:13.046Z,67.17
2016-12-01T06:17:12.184Z,67.45
2016-12-01T06:18:12.596Z,66.47
2016-12-01T06:19:12.520Z,65.74
2016-12-01T06:20:13.147Z,64.80
2016-12-01T06:21:12.904Z,64.53
2016-12-01T06:22:13.603Z,64.13
2016-12-01T06:23:13.095Z,64.31
2016-12-01T06:24:12.351Z,63.84
2016-12-01T06:25:12.371Z,63.99
2016-12-01T06:26:13.295Z,63.89
2016-12-01T06:27:12.191Z,63.91
2016-12-01T06:28:14.117Z,64.03
2016-12-01T06:29:12.464Z,63.92
2016-12-01T06:30:12.456Z,63.88
2016-12-01T06:31:13.805Z,64.00
2016-12-01T06:32:13.521Z,63.90
2016-12-01T06:33:13.954Z,64.12
2016-12-01T06:34:12.744Z,63.88
2016-12-01T06:35:13.278Z,64.46
2016-12-01T06:36:12.324Z,64.41
2016-12-01T06:37:12.375Z,64.67
2016-12-01T06:38:13.287Z,64.64
2016-12-01T06:39:12.281Z,64.70
2016-12-01T06:40:12.225Z,63.84
2016-12-01T06:41:13.836Z,63.37
2016-12-01T06:42:14.104Z,63.73
2016-12-01T06:43:12.201Z,64.15
2016-12-01T06:44:12.180Z,64.35
2016-12-01T06:45:13.456Z,63.93
2016-12-01T06:46:12.515Z,52.11
2016-12-01T06:47:13.358Z,46.04
2016-12-01T06:48:13.133Z,42.49
2016-12-01T06:49:12.104Z,42.57
2016-12-01T06:50:13.163Z,41.11
2016-12-01T06:51:12.755Z,43.13
2016-12-01T06:52:13.300Z,44.64
2016-12-01T06:53:14.227Z,49.08
2016-12-01T06:54:19.136Z,51.77
2016-12-01T06:55:13.550Z,52.00
2016-12-01T06:56:12.536Z,54.17
2016-12-01T06:57:12.543Z,56.74
2016-12-01T06:58:12.542Z,56.11
2016-12-01T06:59:12.701Z,57.02
2016-12-01T07:00:13.460Z,56.62
2016-12-01T07:01:12.834Z,57.38
2016-12-01T07:02:13.314Z,57.40
2016-12-01T07:03:12.888Z,57.79
2016-12-01T07:04:12.879Z,57.80
2016-12-01T07:05:12.896Z,58.17
2016-12-01T07:06:13.409Z,62.23
2016-12-01T07:07:13.647Z,59.16
2016-12-01T07:08:13.146Z,57.29
2016-12-01T07:09:12.260Z,55.72
2016-12-01T07:10:12.904Z,56.56
2016-12-01T07:11:11.619Z,57.09
2016-12-01T07:12:13.236Z,54.25
2016-12-01T07:13:12.123Z,55.41
2016-12-01T07:14:12.295Z,54.12
2016-12-01T07:15:10.590Z,53.86
2016-12-01T07:16:12.966Z,53.99
2016-12-01T07:17:13.835Z,54.97
2016-12-01T07:18:12.930Z,55.97
2016-12-01T07:19:13.107Z,56.42
2016-12-01T07:20:12.604Z,56.36
2016-12-01T07:21:13.540Z,56.64
2016-12-01T07:22:13.186Z,56.57
2016-12-01T07:23:12.165Z,56.91
2016-12-01T07:24:11.275Z,57.11
2016-12-01T07:25:12.264Z,56.06
2016-12-01T07:26:13.871Z,56.17
2016-12-01T07:27:12.912Z,54.28
2016-12-01T07:28:13.702Z,53.63
2016-12-01T07:29:12.708Z,53.22
2016-12-01T07:30:12.710Z,52.11
2016-12-01T07:31:11.439Z,51.14
2016-12-01T07:32:13.032Z,49.02
2016-12-01T07:33:11.114Z,48.54
2016-12-01T07:34:11.911Z,47.74
2016-12-01T07:35:13.694Z,48.31
2016-12-01T07:36:14.386Z,46.85
2016-12-01T07:37:12.424Z,47.03
2016-12-01T07:38:12.356Z,47.70
2016-12-01T07:39:13.395Z,49.22
2016-12-01T07:40:13.963Z,49.79
2016-12-01T07:41:12.856Z,51.52
2016-12-01T07:42:12.866Z,52.44
2016-12-01T07:43:13.213Z,52.30
2016-12-01T07:44:12.150Z,52.57
2016-12-01T07:45:12.080Z,54.19
2016-12-01T07:46:12.083Z,53.78
2016-12-01T07:47:13.020Z,53.85
2016-12-01T07:48:09.351Z,54.58
2016-12-01T07:49:12.906Z,54.57
2016-12-01T07:50:13.014Z,56.04
2016-12-01T07:51:19.770Z,55.74
2016-12-01T07:52:13.235Z,56.47
2016-12-01T07:53:13.187Z,56.40
2016-12-01T07:54:12.895Z,55.49
2016-12-01T07:55:12.821Z,51.20
2016-12-01T07:56:10.894Z,51.14
2016-12-01T07:57:13.200Z,48.05
2016-12-01T07:58:12.693Z,48.03
2016-12-01T07:59:13.531Z,50.37
2016-12-01T08:00:12.621Z,48.01
2016-12-01T08:01:14.006Z,47.41
2016-12-01T08:02:12.118Z,47.73
2016-12-01T08:03:11.233Z,51.54
2016-12-01T08:04:13.024Z,52.25
2016-12-01T08:05:11.959Z,52.17
2016-12-01T08:06:13.022Z,51.64
2016-12-01T08:07:12.136Z,52.42
2016-12-01T08:08:13.371Z,53.58
2016-12-01T08:09:12.534Z,53.89
2016-12-01T08:10:14.309Z,53.87
2016-12-01T08:11:12.880Z,54.48
2016-12-01T08:12:14.695Z,54.80
2016-12-01T08:13:10.975Z,54.77
2016-12-01T08:14:13.799Z,54.74
2016-12-01T08:15:12.995Z,54.84
2016-12-01T08:16:13.744Z,54.89
2016-12-01T08:17:12.822Z,54.96
2016-12-01T08:18:13.896Z,54.99
2016-12-01T08:19:12.892Z,54.95
2016-12-01T08:20:13.623Z,54.94
2016-12-01T08:21:13.121Z,54.85
2016-12-01T08:22:12.700Z,54.08
2016-12-01T08:23:11.483Z,54.83
2016-12-01T08:24:18.895Z,54.95
2016-12-01T08:25:13.573Z,54.97
2016-12-01T08:26:12.544Z,55.04
2016-12-01T08:27:14.311Z,55.09
2016-12-01T08:28:11.463Z,54.93
2016-12-01T08:29:12.338Z,54.44
2016-12-01T08:30:12.451Z,55.06
2016-12-01T08:31:12.473Z,55.16
2016-12-01T08:32:13.611Z,55.21
2016-12-01T08:33:12.508Z,55.30
2016-12-01T08:34:12.550Z,54.56
2016-12-01T08:35:13.242Z,54.38
2016-12-01T08:36:12.794Z,54.33
2016-12-01T08:37:12.605Z,54.32
2016-12-01T08:38:12.574Z,54.31
2016-12-01T08:39:12.501Z,54.32
2016-12-01T08:40:12.548Z,54.37
2016-12-01T08:41:13.318Z,54.46
2016-12-01T08:42:12.365Z,54.41
2016-12-01T08:43:11.245Z,54.45
2016-12-01T08:44:17.808Z,54.42
2016-12-01T08:45:12.772Z,54.44
2016-12-01T08:46:14.282Z,54.80
2016-12-01T08:47:12.999Z,55.43
2016-12-01T08:48:12.438Z,55.63
2016-12-01T08:49:12.841Z,55.74
2016-12-01T08:50:13.131Z,55.78
2016-12-01T08:51:12.211Z,55.82
2016-12-01T08:52:12.837Z,55.86
2016-12-01T08:53:13.642Z,55.85
2016-12-01T08:54:12.780Z,55.97
2016-12-01T08:55:13.193Z,56.01
2016-12-01T08:56:12.760Z,56.05
2016-12-01T08:57:13.393Z,55.99
2016-12-01T08:58:12.873Z,56.04
2016-12-01T08:59:12.672Z,56.12
2016-12-01T09:00:12.489Z,56.09
2016-12-01T09:01:12.769Z,56.10
2016-12-01T09:02:12.878Z,56.16
2016-12-01T09:03:13.520Z,56.24
2016-12-01T09:04:13.103Z,56.23
2016-12-01T09:05:12.174Z,56.29
2016-12-01T09:06:13.851Z,56.29
2016-12-01T09:07:13.510Z,56.26
2016-12-01T09:08:14.357Z,56.32
2016-12-01T09:09:12.830Z,56.29
2016-12-01T09:10:12.797Z,56.36
2016-12-01T09:11:12.531Z,56.39
2016-12-01T09:12:12.861Z,56.38
2016-12-01T09:13:12.865Z,56.40
2016-12-01T09:14:12.887Z,56.49
2016-12-01T09:15:13.323Z,56.41
2016-12-01T09:16:12.460Z,55.62
2016-12-01T09:17:10.674Z,55.48
2016-12-01T09:18:14.349Z,55.50
2016-12-01T09:19:17.733Z,56.27
2016-12-01T09:20:12.700Z,56.42
2016-12-01T09:21:12.640Z,56.57
2016-12-01T09:22:13.173Z,56.58
2016-12-01T09:23:12.854Z,56.62
2016-12-01T09:24:12.878Z,56.69
2016-12-01T09:25:13.421Z,56.71
2016-12-01T09:26:13.090Z,56.73
2016-12-01T09:27:11.962Z,56.77
2016-12-01T09:28:12.009Z,56.81
2016-12-01T09:29:11.903Z,56.83
2016-12-01T09:30:13.579Z,56.85
2016-12-01T09:31:12.828Z,56.88
2016-12-01T09:32:13.439Z,56.89
2016-12-01T09:33:13.744Z,56.89
2016-12-01T09:34:12.796Z,56.91
2016-12-01T09:35:13.452Z,56.97
2016-12-01T09:36:12.556Z,56.97
2016-12-01T09:37:13.006Z,56.89
2016-12-01T09:38:11.958Z,56.16
2016-12-01T09:39:11.968Z,56.05
2016-12-01T09:40:13.791Z,56.87
2016-12-01T09:41:13.139Z,57.01
2016-12-01T09:42:12.135Z,57.07
2016-12-01T09:43:13.454Z,57.09
2016-12-01T09:44:12.578Z,57.15
2016-12-01T09:45:14.011Z,57.13
2016-12-01T09:46:12.748Z,57.21
2016-12-01T09:47:13.614Z,57.28
2016-12-01T09:48:13.084Z,57.26
2016-12-01T09:49:14.610Z,57.29
2016-12-01T09:50:12.696Z,57.30
2016-12-01T09:51:13.366Z,57.32
2016-12-01T09:52:13.073Z,57.33
2016-12-01T09:53:12.421Z,57.34
2016-12-01T09:54:11.367Z,57.33
2016-12-01T09:55:12.373Z,57.36
2016-12-01T09:56:13.190Z,57.41
2016-12-01T09:57:12.284Z,57.42
2016-12-01T09:58:13.889Z,57.39
2016-12-01T09:59:12.809Z,57.45
2016-12-01T10:00:11.500Z,57.44
2016-12-01T10:01:13.309Z,57.44
2016-12-01T10:02:12.633Z,57.47
2016-12-01T10:03:12.599Z,57.49
2016-12-01T10:04:14.062Z,57.50
2016-12-01T10:05:11.926Z,57.52
2016-12-01T10:06:11.959Z,57.49
2016-12-01T10:07:12.795Z,57.54
2016-12-01T10:08:13.333Z,57.55
2016-12-01T10:09:12.387Z,57.56
2016-12-01T10:10:12.923Z,57.60
2016-12-01T10:11:12.540Z,57.60
2016-12-01T10:12:12.396Z,57.61
2016-12-01T10:13:12.329Z,57.65
2016-12-01T10:14:09.581Z,57.62
2016-12-01T10:15:12.614Z,57.64
2016-12-01T10:16:12.431Z,57.67
2016-12-01T10:17:13.310Z,57.67
2016-12-01T10:18:13.018Z,57.70
2016-12-01T10:19:12.085Z,57.68
2016-12-01T10:20:12.652Z,57.68
2016-12-01T10:21:14.191Z,57.68
2016-12-01T10:22:12.322Z,57.68
2016-12-01T10:23:12.466Z,57.76
2016-12-01T10:24:12.482Z,57.73
2016-12-01T10:25:12.891Z,57.72
2016-12-01T10:26:12.912Z,57.77
2016-12-01T10:27:13.572Z,57.75
2016-12-01T10:28:13.348Z,57.76
2016-12-01T10:29:13.295Z,57.79
2016-12-01T10:30:12.348Z,57.80
2016-12-01T10:31:12.343Z,57.77
2016-12-01T10:32:12.313Z,57.82
2016-12-01T10:33:13.787Z,57.80
2016-12-01T10:34:12.717Z,57.84
2016-12-01T10:35:12.738Z,57.84
2016-12-01T10:36:13.345Z,57.83
2016-12-01T10:37:13.014Z,57.85
2016-12-01T10:38:12.909Z,57.86
2016-12-01T10:39:12.994Z,57.87
2016-12-01T10:40:11.181Z,57.80
2016-12-01T10:41:12.753Z,56.96
2016-12-01T10:42:13.180Z,56.78
2016-12-01T10:43:12.280Z,56.77
2016-12-01T10:44:12.728Z,57.59
2016-12-01T10:45:19.102Z,57.72
2016-12-01T10:46:11.980Z,57.83
2016-12-01T10:47:12.590Z,57.87
2016-12-01T10:48:12.762Z,57.90
2016-12-01T10:49:12.596Z,57.87
2016-12-01T10:50:13.277Z,57.92
2016-12-01T10:51:12.356Z,57.90
2016-12-01T10:52:13.115Z,57.90
2016-12-01T10:53:12.073Z,57.93
2016-12-01T10:54:12.686Z,57.92
2016-12-01T10:55:12.771Z,57.93
2016-12-01T10:56:13.511Z,57.98
2016-12-01T10:57:13.228Z,57.95
2016-12-01T10:58:12.286Z,57.95
2016-12-01T10:59:10.478Z,58.03
2016-12-01T11:00:13.580Z,57.05
2016-12-01T11:01:12.631Z,56.91
2016-12-01T11:02:14.227Z,56.96
2016-12-01T11:03:13.910Z,57.70
2016-12-01T11:04:14.369Z,57.87
2016-12-01T11:05:13.983Z,57.93
2016-12-01T11:06:12.088Z,57.94
2016-12-01T11:07:13.956Z,57.97
2016-12-01T11:08:11.925Z,58.00
2016-12-01T11:09:13.502Z,58.01
2016-12-01T11:10:12.523Z,58.05
2016-12-01T11:11:12.516Z,58.00
2016-12-01T11:12:13.207Z,58.04
2016-12-01T11:13:11.413Z,58.06
2016-12-01T11:14:11.251Z,58.06
2016-12-01T11:15:12.757Z,58.07
2016-12-01T11:16:14.368Z,58.10
2016-12-01T11:17:13.203Z,58.11
2016-12-01T11:18:12.282Z,58.08
2016-12-01T11:19:13.103Z,58.08
2016-12-01T11:20:12.546Z,58.10
2016-12-01T11:21:13.195Z,58.10
2016-12-01T11:22:12.994Z,58.08
2016-12-01T11:23:12.027Z,58.09
2016-12-01T11:24:12.749Z,57.98
2016-12-01T11:25:12.772Z,57.21
2016-12-01T11:26:13.174Z,57.07
2016-12-01T11:27:11.371Z,56.96
2016-12-01T11:28:12.754Z,56.89
2016-12-01T11:29:14.506Z,56.87
2016-12-01T11:30:12.361Z,56.80
2016-12-01T11:31:12.961Z,56.85
2016-12-01T11:32:11.815Z,56.89
2016-12-01T11:33:13.377Z,57.78
2016-12-01T11:34:14.224Z,57.98
2016-12-01T11:35:13.067Z,58.05
2016-12-01T11:36:12.699Z,58.10
2016-12-01T11:37:12.698Z,58.12
2016-12-01T11:38:13.124Z,58.15
2016-12-01T11:39:13.685Z,58.20
2016-12-01T11:40:13.375Z,58.18
2016-12-01T11:41:11.233Z,58.20
2016-12-01T11:42:12.037Z,58.22
2016-12-01T11:43:11.992Z,58.22
2016-12-01T11:44:12.011Z,58.25
2016-12-01T11:45:12.937Z,58.27
2016-12-01T11:46:11.930Z,58.22
2016-12-01T11:47:12.051Z,58.25
2016-12-01T11:48:13.506Z,58.25
2016-12-01T11:49:12.996Z,58.26
2016-12-01T11:50:12.848Z,58.30
2016-12-01T11:51:12.774Z,58.24
2016-12-01T11:52:14.052Z,58.27
2016-12-01T11:53:11.940Z,58.28
2016-12-01T11:54:12.489Z,58.28
2016-12-01T11:55:12.471Z,58.29
2016-12-01T11:56:13.392Z,58.27
2016-12-01T11:57:13.171Z,58.28
2016-12-01T11:58:12.247Z,58.32
2016-12-01T11:59:13.163Z,58.29
2016-12-01T12:00:12.256Z,58.33
2016-12-01T12:01:12.947Z,58.29
2016-12-01T12:02:12.169Z,58.28
2016-12-01T12:03:13.070Z,58.28
2016-12-01T12:04:12.834Z,58.32
2016-12-01T12:05:12.848Z,58.28
2016-12-01T12:06:12.774Z,58.30
2016-12-01T12:07:13.419Z,58.29
2016-12-01T12:08:18.904Z,58.32
2016-12-01T12:09:12.659Z,58.30
2016-12-01T12:10:12.583Z,58.35
2016-12-01T12:11:11.347Z,58.36
2016-12-01T12:12:12.795Z,58.31
2016-12-01T12:13:12.731Z,58.38
2016-12-01T12:14:12.829Z,58.36
2016-12-01T12:15:13.556Z,58.37
2016-12-01T12:16:14.308Z,58.37
2016-12-01T12:17:12.329Z,58.35
2016-12-01T12:18:12.406Z,58.32
2016-12-01T12:19:12.467Z,58.37
2016-12-01T12:20:12.949Z,58.25
2016-12-01T12:21:13.782Z,57.46
2016-12-01T12:22:13.275Z,57.28
2016-12-01T12:23:14.049Z,58.10
2016-12-01T12:24:12.118Z,58.21
2016-12-01T12:25:12.486Z,58.29
2016-12-01T12:26:14.299Z,58.36
2016-12-01T12:27:11.240Z,58.36
2016-12-01T12:28:11.380Z,57.44
2016-12-01T12:29:12.130Z,57.29
2016-12-01T12:30:13.038Z,58.08
2016-12-01T12:31:12.553Z,58.25
2016-12-01T12:32:14.146Z,58.31
2016-12-01T12:33:12.039Z,58.33
2016-12-01T12:34:12.072Z,58.35
2016-12-01T12:35:12.775Z,58.39
2016-12-01T12:36:12.827Z,58.40
2016-12-01T12:37:12.661Z,58.37
2016-12-01T12:38:12.475Z,58.39
2016-12-01T12:39:13.166Z,58.44
2016-12-01T12:40:12.261Z,58.43
2016-12-01T12:41:12.968Z,58.43
2016-12-01T12:42:19.266Z,58.44
2016-12-01T12:43:12.285Z,58.42
2016-12-01T12:44:12.328Z,58.42
2016-12-01T12:45:12.918Z,58.45
2016-12-01T12:46:10.968Z,58.42
2016-12-01T12:47:13.869Z,57.52
2016-12-01T12:48:13.444Z,57.31
2016-12-01T12:49:12.757Z,58.14
2016-12-01T12:50:12.745Z,58.28
2016-12-01T12:51:13.345Z,58.40
2016-12-01T12:52:13.249Z,58.41